Jackson Evers International Airport
KJAN : now visible

Aeroporto :











RITROVATECI SU...

 
LOGIN :

Iscrizione | Disclaimer

   EN    FR    IT 

 









Sommario :    VFR   VFR Marginale   IFR   IFR Intensivo   IFR Molto Intensivo
Visibilità : 
Base nubi : 
>= 8 km
>= 3000ft
5 / 8 km
1000 / 3000 ft
1500m / 5 km
500 / 1000 ft
800 / 1500m
200 / 500 ft
< 800m
< 200 ft
Simboli :   Temporali  Nebbia  Neve Forte  Precipitazioni Forti  Vento > 20 kt






- Altitudine del aeroporto : 346 ft
- Codice IATA : JAN


KJAN - Jackson Evers International

ULTIMO METAR :
  • 250919Z 16005KT 10SM BKN018 23/20 A3006 RMK AO2 T02330200

METARs OBSOLETI :
  • 250854Z 14007KT 10SM CLR 23/20 A3006 RMK AO2 SLP173 T02280200 53002
  • 250754Z 14006KT 10SM CLR 23/20 A3005 RMK AO2 SLP170 T02330200
  • 250654Z 15005KT 10SM CLR 24/20 A3005 RMK AO2 SLP169 T02390200

TAF KJAN
Valido dal 25 a 06 ore il 26 a 06 ore UTC


250530Z 2506/2606 14005KT P6SM FEW025
FM251100 15005KT P6SM BKN015
FM251500 16008KT P6SM OVC025
FM251700 16009KT P6SM BKN035
FM252100 15009KT P6SM VCTS OVC050CB
FM260100 15007KT P6SM BKN250
FIR KZME / America del Nord



MetMap, La meteo Aeronautica in un colpo d'occhio ! - Copyright ORBIFLY Dicembre 2007 - Disclaimer

ORBIFLY MET'MAP TEAM :

Programmazione e sviluppo : Alexandra Zaïnal
Concezione : Baudouin d'Aumeries
Aiuto per la programmazione : Marc-Olivier Méhu
Supporto tecnico e logistico : Manuel Goepfert
Aiuto per la traduzione : Arnaldo La Scala

Contatto : metmap@orbifly.com




FONTI E CREDITI :

   NOAA       Earth
Advisory